createdAt,value
2023-05-09T00:00:26.246Z,101280.03
2023-05-09T00:03:29.398Z,101276.50
2023-05-09T00:06:32.330Z,101276.38
2023-05-09T00:09:35.005Z,101280.66
2023-05-09T00:12:37.356Z,101276.34
2023-05-09T00:15:39.979Z,101274.75
2023-05-09T00:18:42.783Z,101272.13
2023-05-09T00:21:45.826Z,101268.72
2023-05-09T00:24:48.738Z,101266.22
2023-05-09T00:27:51.410Z,101268.88
2023-05-09T00:30:54.588Z,101270.69
2023-05-09T00:33:57.167Z,101259.41
2023-05-09T00:36:59.411Z,101251.72
2023-05-09T00:40:02.226Z,101249.94
2023-05-09T00:43:04.948Z,101254.28
2023-05-09T00:46:07.794Z,101256.16
2023-05-09T00:49:12.314Z,101258.75
2023-05-09T00:52:14.896Z,101254.47
2023-05-09T00:55:17.647Z,101259.69
2023-05-09T00:58:20.892Z,101257.06
2023-05-09T01:01:23.317Z,101257.16
2023-05-09T01:04:26.161Z,101250.28
2023-05-09T01:07:28.451Z,101252.88
2023-05-09T01:10:34.042Z,101252.03
2023-05-09T01:13:41.333Z,101258.09
2023-05-09T01:16:49.380Z,101260.75
2023-05-09T01:20:14.784Z,101258.16
2023-05-09T01:23:30.300Z,101254.81
2023-05-09T01:26:47.051Z,101257.41
2023-05-09T01:29:56.993Z,101249.72
2023-05-09T01:33:00.791Z,101252.34
2023-05-09T01:36:05.336Z,101248.91
2023-05-09T01:39:12.049Z,101248.94
2023-05-09T01:42:16.601Z,101255.84
2023-05-09T01:45:19.443Z,101248.97
2023-05-09T01:48:26.313Z,101242.94
2023-05-09T01:51:29.613Z,101245.56
2023-05-09T01:54:33.498Z,101246.47
2023-05-09T01:57:36.510Z,101241.34
2023-05-09T02:00:39.266Z,101244.75
2023-05-09T02:03:43.093Z,101241.34
2023-05-09T02:06:46.201Z,101234.50
2023-05-09T02:09:49.735Z,101232.78
2023-05-09T02:12:53.156Z,101237.13
2023-05-09T02:15:56.697Z,101229.41
2023-05-09T02:18:59.832Z,101238.03
2023-05-09T02:22:04.981Z,101236.34
2023-05-09T02:25:08.422Z,101235.53
2023-05-09T02:28:11.259Z,101232.97
2023-05-09T02:31:14.926Z,101226.06
2023-05-09T02:34:17.682Z,101233.75
2023-05-09T02:37:20.931Z,101222.50
2023-05-09T02:40:24.750Z,101224.25
2023-05-09T02:43:27.423Z,101220.84
2023-05-09T02:46:31.137Z,101223.37
2023-05-09T02:49:35.078Z,101223.37
2023-05-09T02:52:37.767Z,101228.59
2023-05-09T02:55:40.608Z,101221.69
2023-05-09T02:58:43.064Z,101228.59
2023-05-09T03:01:47.560Z,101229.47
2023-05-09T03:04:50.706Z,101224.25
2023-05-09T03:07:53.284Z,101224.31
2023-05-09T03:10:55.632Z,101218.31
2023-05-09T03:13:58.792Z,101220.03
2023-05-09T03:17:01.155Z,101216.56
2023-05-09T03:20:05.781Z,101220.88
2023-05-09T03:23:08.464Z,101220.06
2023-05-09T03:26:11.105Z,101214.00
2023-05-09T03:29:13.416Z,101217.44
2023-05-09T03:32:16.193Z,101224.31
2023-05-09T03:35:18.872Z,101222.59
2023-05-09T03:38:24.367Z,101220.88
2023-05-09T03:41:27.215Z,101226.87
2023-05-09T03:44:30.028Z,101226.03
2023-05-09T03:47:32.281Z,101224.25
2023-05-09T03:50:35.799Z,101230.22
2023-05-09T03:53:38.488Z,101230.19
2023-05-09T03:56:41.775Z,101232.72
2023-05-09T03:59:44.314Z,101235.31
2023-05-09T04:02:49.038Z,101237.03
2023-05-09T04:05:53.654Z,101230.06
2023-05-09T04:08:56.516Z,101236.97
2023-05-09T04:11:59.582Z,101234.28
2023-05-09T04:15:02.381Z,101228.12
2023-05-09T04:18:06.390Z,101238.47
2023-05-09T04:21:09.245Z,101229.75
2023-05-09T04:24:12.333Z,101239.12
2023-05-09T04:27:15.723Z,101232.19
2023-05-09T04:30:18.631Z,101239.94
2023-05-09T04:33:21.413Z,101239.81
2023-05-09T04:36:25.308Z,101233.72
2023-05-09T04:39:27.850Z,101231.13
2023-05-09T04:42:33.720Z,101234.41
2023-05-09T04:45:36.363Z,101246.53
2023-05-09T04:48:38.920Z,101241.25
2023-05-09T04:51:41.245Z,101239.41
2023-05-09T04:54:43.926Z,101238.47
2023-05-09T04:57:46.877Z,101240.47
2023-05-09T05:00:50.496Z,101234.41
2023-05-09T05:03:53.165Z,101234.84
2023-05-09T05:06:55.864Z,101241.56
2023-05-09T05:09:58.353Z,101245.91
2023-05-09T05:13:01.298Z,101244.50
2023-05-09T05:16:04.109Z,101244.97
2023-05-09T05:19:07.006Z,101246.53
2023-05-09T05:22:10.949Z,101250.78
2023-05-09T05:25:15.194Z,101243.84
2023-05-09T05:28:18.132Z,101235.75
2023-05-09T05:31:21.332Z,101245.16
2023-05-09T05:34:23.777Z,101241.66
2023-05-09T05:37:26.675Z,101240.50
2023-05-09T05:40:29.238Z,101246.47
2023-05-09T05:43:32.581Z,101239.34
2023-05-09T05:46:35.695Z,101230.22
2023-05-09T05:49:38.876Z,101238.13
2023-05-09T05:52:41.695Z,101239.91
2023-05-09T05:55:46.103Z,101236.91
2023-05-09T05:58:49.053Z,101244.34
2023-05-09T06:01:53.219Z,101243.09
2023-05-09T06:04:57.040Z,101243.78
2023-05-09T06:07:59.605Z,101242.09
2023-05-09T06:11:02.420Z,101239.28
2023-05-09T06:14:05.052Z,101234.63
2023-05-09T06:17:08.184Z,101241.34
2023-05-09T06:20:11.098Z,101232.75
2023-05-09T06:23:13.718Z,101244.03
2023-05-09T06:26:16.177Z,101245.00
2023-05-09T06:29:19.681Z,101239.63
2023-05-09T06:32:22.061Z,101231.59
2023-05-09T06:35:24.704Z,101229.94
2023-05-09T06:38:27.027Z,101223.53
2023-05-09T06:41:29.635Z,101224.56
2023-05-09T06:44:32.814Z,101222.56
2023-05-09T06:47:35.409Z,101222.66
2023-05-09T06:50:37.822Z,101219.75
2023-05-09T06:53:40.479Z,101213.37
2023-05-09T06:56:42.863Z,101218.31
2023-05-09T06:59:47.131Z,101213.44
2023-05-09T07:02:49.541Z,101211.84
2023-05-09T07:05:52.498Z,101213.81
2023-05-09T07:08:54.781Z,101208.84
2023-05-09T07:11:57.361Z,101205.81
2023-05-09T07:15:00.045Z,101201.72
2023-05-09T07:18:02.846Z,101200.72
2023-05-09T07:21:05.580Z,101214.81
2023-05-09T07:24:08.212Z,101198.53
2023-05-09T07:27:10.826Z,101188.19
2023-05-09T07:30:14.258Z,101196.22
2023-05-09T07:33:19.242Z,101190.28
2023-05-09T07:36:21.955Z,101180.22
2023-05-09T07:39:24.307Z,101180.28
2023-05-09T07:42:26.936Z,101180.62
2023-05-09T07:45:29.318Z,101182.97
2023-05-09T07:48:31.982Z,101174.47
2023-05-09T07:51:34.350Z,101166.16
2023-05-09T07:54:37.077Z,101164.41
2023-05-09T07:57:40.134Z,101170.56
2023-05-09T08:00:42.964Z,101166.94
2023-05-09T08:03:46.330Z,101159.19
2023-05-09T08:06:48.951Z,101149.44
2023-05-09T08:09:51.501Z,101159.37
2023-05-09T08:12:53.891Z,101149.16
2023-05-09T08:15:57.192Z,101143.53
2023-05-09T08:18:59.618Z,101144.16
2023-05-09T08:22:02.297Z,101143.47
2023-05-09T08:25:05.166Z,101135.75
2023-05-09T08:28:07.981Z,101129.81
2023-05-09T08:31:10.285Z,101143.00
2023-05-09T08:34:13.098Z,101136.84
2023-05-09T08:37:15.689Z,101134.06
2023-05-09T08:40:18.595Z,101126.91
2023-05-09T08:43:21.712Z,101115.19
2023-05-09T08:46:44.305Z,101115.88
2023-05-09T08:49:47.457Z,101119.88
2023-05-09T08:52:51.586Z,101115.19
2023-05-09T08:55:54.316Z,101114.50
2023-05-09T08:58:57.136Z,101106.88
2023-05-09T09:01:59.633Z,101098.37
2023-05-09T09:05:03.004Z,101116.06
2023-05-09T09:08:07.352Z,101101.56
2023-05-09T09:11:17.368Z,101096.88
2023-05-09T09:14:27.648Z,101092.75
2023-05-09T09:17:31.787Z,101079.41
2023-05-09T09:20:35.691Z,101074.91
2023-05-09T09:23:40.726Z,101070.63
2023-05-09T09:26:47.282Z,101083.50
2023-05-09T09:29:49.932Z,101086.62
2023-05-09T09:32:52.491Z,101087.13
2023-05-09T09:35:55.744Z,101078.19
2023-05-09T09:39:01.834Z,101082.34
2023-05-09T09:42:13.094Z,101086.47
2023-05-09T09:45:16.930Z,101093.81
2023-05-09T09:48:24.000Z,101081.16
2023-05-09T09:51:28.988Z,101091.03
2023-05-09T09:54:31.898Z,101084.25
2023-05-09T09:57:37.383Z,101076.75
2023-05-09T10:00:40.041Z,101072.38
2023-05-09T10:03:44.941Z,101069.72
2023-05-09T10:06:54.282Z,101061.78
2023-05-09T10:09:57.034Z,101061.50
2023-05-09T10:13:00.590Z,101053.56
2023-05-09T10:16:03.837Z,101056.63
2023-05-09T10:19:09.686Z,101059.47
2023-05-09T10:22:14.661Z,101051.69
2023-05-09T10:25:17.223Z,101045.38
2023-05-09T10:28:22.861Z,101048.75
2023-05-09T10:31:26.957Z,101054.78
2023-05-09T10:34:31.528Z,101052.53
2023-05-09T10:37:34.499Z,101052.22
2023-05-09T10:40:37.533Z,101042.97
2023-05-09T10:43:40.075Z,101041.13
2023-05-09T10:46:43.149Z,101032.75
2023-05-09T10:49:45.973Z,101036.72
2023-05-09T10:53:19.842Z,101036.78
2023-05-09T10:56:32.350Z,101036.19
2023-05-09T10:59:36.381Z,101032.63
2023-05-09T11:02:39.219Z,101036.97
2023-05-09T11:05:42.079Z,101038.91
2023-05-09T11:08:44.459Z,101029.38
2023-05-09T11:11:53.915Z,101028.22
2023-05-09T11:15:04.336Z,101032.56
2023-05-09T11:18:08.304Z,101027.88
2023-05-09T11:21:11.791Z,101025.88
2023-05-09T11:24:17.455Z,101015.63
2023-05-09T11:27:23.683Z,101008.47
2023-05-09T11:30:35.845Z,101009.91
2023-05-09T11:33:39.294Z,101009.34
2023-05-09T11:36:42.849Z,100992.38
2023-05-09T11:39:55.810Z,100993.78
2023-05-09T11:42:59.710Z,100988.78
2023-05-09T11:46:02.952Z,100985.81
2023-05-09T11:49:06.833Z,100988.31
2023-05-09T11:52:09.203Z,100992.22
2023-05-09T11:55:16.114Z,101000.88
2023-05-09T11:58:18.703Z,100991.62
2023-05-09T12:01:22.547Z,100988.34
2023-05-09T12:04:25.323Z,100985.66
2023-05-09T12:07:27.857Z,100981.59
2023-05-09T12:10:30.541Z,100973.91
2023-05-09T12:13:32.979Z,100968.38
2023-05-09T12:16:35.700Z,100958.44
2023-05-09T12:19:38.183Z,100968.13
2023-05-09T12:22:43.137Z,100959.63
2023-05-09T12:25:48.967Z,100967.53
2023-05-09T12:28:51.898Z,100966.50
2023-05-09T12:31:54.570Z,100954.25
2023-05-09T12:34:58.036Z,100960.69
2023-05-09T12:38:00.460Z,100949.94
2023-05-09T12:41:04.574Z,100945.91
2023-05-09T12:44:07.813Z,100942.19
2023-05-09T12:47:12.439Z,100935.22
2023-05-09T12:50:15.027Z,100933.44
2023-05-09T12:53:27.531Z,100926.81
2023-05-09T12:56:33.488Z,100919.66
2023-05-09T12:59:36.348Z,100927.12
2023-05-09T13:02:42.404Z,100906.94
2023-05-09T13:05:53.644Z,100912.59
2023-05-09T13:09:00.332Z,100903.94
2023-05-09T13:12:09.995Z,100906.88
2023-05-09T13:15:13.013Z,100894.84
2023-05-09T13:18:15.998Z,100908.13
2023-05-09T13:21:18.353Z,100904.28
2023-05-09T13:24:21.025Z,100898.81
2023-05-09T13:27:23.284Z,100882.34
2023-05-09T13:30:25.942Z,100883.00
2023-05-09T13:33:28.346Z,100884.78
2023-05-09T13:36:32.553Z,100889.03
2023-05-09T13:39:35.034Z,100885.06
2023-05-09T13:42:38.479Z,100885.06
2023-05-09T13:45:40.988Z,100882.47
2023-05-09T13:48:44.519Z,100876.47
2023-05-09T13:51:47.081Z,100876.81
2023-05-09T13:54:49.669Z,100873.16
2023-05-09T13:57:52.016Z,100866.63
2023-05-09T14:00:54.643Z,100868.59
2023-05-09T14:03:57.243Z,100859.06
2023-05-09T14:07:00.162Z,100861.78
2023-05-09T14:13:11.087Z,100845.47
2023-05-09T14:16:15.852Z,100839.66
2023-05-09T14:19:18.198Z,100842.84
2023-05-09T14:22:21.579Z,100845.69
2023-05-09T14:25:23.893Z,100838.72
2023-05-09T14:28:26.915Z,100832.84
2023-05-09T14:31:29.413Z,100840.50
2023-05-09T14:34:32.299Z,100820.78
2023-05-09T14:37:34.585Z,100840.06
2023-05-09T14:40:37.187Z,100823.06
2023-05-09T14:43:39.511Z,100828.19
2023-05-09T14:46:42.140Z,100821.78
2023-05-09T14:49:47.344Z,100825.09
2023-05-09T14:52:53.045Z,100824.59
2023-05-09T14:55:56.087Z,100830.13
2023-05-09T14:58:58.818Z,100814.03
2023-05-09T15:02:01.234Z,100816.87
2023-05-09T15:05:03.928Z,100810.56
2023-05-09T15:08:07.097Z,100801.97
2023-05-09T15:11:09.759Z,100802.38
2023-05-09T15:14:12.290Z,100804.81
2023-05-09T15:17:14.892Z,100802.50
2023-05-09T15:20:18.305Z,100797.59
2023-05-09T15:23:21.217Z,100795.66
2023-05-09T15:26:24.224Z,100796.34
2023-05-09T15:29:26.884Z,100791.91
2023-05-09T15:32:29.304Z,100791.34
2023-05-09T15:35:32.017Z,100791.91
2023-05-09T15:38:34.725Z,100781.09
2023-05-09T15:41:37.484Z,100771.06
2023-05-09T15:44:40.790Z,100774.72
2023-05-09T15:47:43.549Z,100786.13
2023-05-09T15:50:45.995Z,100780.50
2023-05-09T15:53:49.863Z,100779.81
2023-05-09T15:56:52.812Z,100775.16
2023-05-09T15:59:56.067Z,100774.53
2023-05-09T16:02:58.558Z,100766.72
2023-05-09T16:06:01.606Z,100759.34
2023-05-09T16:09:04.762Z,100755.69
2023-05-09T16:12:07.658Z,100756.72
2023-05-09T16:15:10.215Z,100753.22
2023-05-09T16:18:13.266Z,100746.38
2023-05-09T16:21:18.820Z,100752.00
2023-05-09T16:24:21.513Z,100760.66
2023-05-09T16:27:23.797Z,100753.62
2023-05-09T16:30:26.455Z,100758.06
2023-05-09T16:33:28.867Z,100764.12
2023-05-09T16:36:33.001Z,100760.62
2023-05-09T16:39:35.278Z,100747.97
2023-05-09T16:42:40.470Z,100748.31
2023-05-09T16:45:44.605Z,100748.25
2023-05-09T16:48:47.227Z,100742.75
2023-05-09T16:51:49.688Z,100743.16
2023-05-09T16:54:54.683Z,100742.16
2023-05-09T16:57:57.286Z,100738.75
2023-05-09T17:01:02.216Z,100736.09
2023-05-09T17:04:06.686Z,100726.16
2023-05-09T17:07:09.475Z,100731.97
2023-05-09T17:10:11.790Z,100734.59
2023-05-09T17:13:14.555Z,100727.69
2023-05-09T17:16:17.149Z,100730.31
2023-05-09T17:19:23.291Z,100737.59
2023-05-09T17:22:26.872Z,100737.94
2023-05-09T17:25:29.509Z,100739.97
2023-05-09T17:28:31.884Z,100737.88
2023-05-09T17:31:34.544Z,100731.19
2023-05-09T17:34:37.938Z,100734.97
2023-05-09T17:37:40.953Z,100723.84
2023-05-09T17:40:43.578Z,100733.91
2023-05-09T17:43:47.073Z,100735.28
2023-05-09T17:46:49.593Z,100732.06
2023-05-09T17:49:52.221Z,100733.28
2023-05-09T17:52:56.377Z,100732.75
2023-05-09T17:55:59.638Z,100731.63
2023-05-09T17:59:02.077Z,100730.59
2023-05-09T18:02:04.740Z,100736.13
2023-05-09T18:05:11.168Z,100733.41
2023-05-09T18:08:13.632Z,100739.91
2023-05-09T18:11:16.572Z,100738.03
2023-05-09T18:14:18.941Z,100733.84
2023-05-09T18:17:21.827Z,100730.84
2023-05-09T18:20:24.287Z,100737.50
2023-05-09T18:23:27.397Z,100735.41
2023-05-09T18:26:29.760Z,100738.91
2023-05-09T18:29:33.430Z,100745.84
2023-05-09T18:32:35.872Z,100745.47
2023-05-09T18:35:38.484Z,100744.03
2023-05-09T18:38:41.608Z,100747.06
2023-05-09T18:41:44.247Z,100752.75
2023-05-09T18:44:46.602Z,100760.47
2023-05-09T18:47:49.234Z,100757.28
2023-05-09T18:50:52.574Z,100753.25
2023-05-09T18:53:55.273Z,100757.03
2023-05-09T18:56:58.038Z,100758.41
2023-05-09T19:00:01.559Z,100766.19
2023-05-09T19:03:04.509Z,100773.91
2023-05-09T19:06:08.668Z,100775.72
2023-05-09T19:09:11.645Z,100773.22
2023-05-09T19:12:16.421Z,100772.41
2023-05-09T19:15:19.798Z,100774.88
2023-05-09T19:18:23.081Z,100771.72
2023-05-09T19:21:25.875Z,100771.12
2023-05-09T19:24:28.963Z,100766.44
2023-05-09T19:27:31.772Z,100773.78
2023-05-09T19:30:35.944Z,100765.16
2023-05-09T19:33:38.661Z,100769.28
2023-05-09T19:36:41.738Z,100767.81
2023-05-09T19:39:44.394Z,100774.12
2023-05-09T19:42:47.430Z,100767.88
2023-05-09T19:45:50.243Z,100762.13
2023-05-09T19:48:53.355Z,100763.09
2023-05-09T19:51:56.040Z,100768.31
2023-05-09T19:54:59.028Z,100768.72
2023-05-09T19:58:01.881Z,100764.16
2023-05-09T20:01:06.837Z,100762.75
2023-05-09T20:04:09.902Z,100755.03
2023-05-09T20:07:12.666Z,100756.00
2023-05-09T20:10:16.301Z,100752.66
2023-05-09T20:13:18.793Z,100755.72
2023-05-09T20:16:21.507Z,100755.13
2023-05-09T20:19:23.967Z,100753.81
2023-05-09T20:22:26.549Z,100756.03
2023-05-09T20:25:29.006Z,100760.66
2023-05-09T20:28:31.951Z,100761.09
2023-05-09T20:31:34.342Z,100759.59
2023-05-09T20:34:37.039Z,100758.19
2023-05-09T20:37:39.612Z,100757.59
2023-05-09T20:40:43.291Z,100755.94
2023-05-09T20:43:45.715Z,100755.31
2023-05-09T20:46:48.313Z,100753.16
2023-05-09T20:49:50.654Z,100747.31
2023-05-09T20:52:53.360Z,100743.09
2023-05-09T20:55:55.788Z,100742.75
2023-05-09T20:59:03.611Z,100742.03
2023-05-09T21:02:06.080Z,100742.25
2023-05-09T21:05:08.700Z,100742.34
2023-05-09T21:08:10.944Z,100738.94
2023-05-09T21:11:13.802Z,100737.88
2023-05-09T21:14:16.151Z,100733.62
2023-05-09T21:17:18.833Z,100733.72
2023-05-09T21:20:21.443Z,100734.31
2023-05-09T21:23:24.028Z,100736.94
2023-05-09T21:26:26.285Z,100739.41
2023-05-09T21:29:28.901Z,100734.97
2023-05-09T21:32:31.303Z,100735.19
2023-05-09T21:35:33.871Z,100735.69
2023-05-09T21:38:36.233Z,100727.22
2023-05-09T21:41:39.605Z,100732.44
2023-05-09T21:44:41.866Z,100731.56
2023-05-09T21:47:44.461Z,100729.44
2023-05-09T21:50:46.841Z,100731.56
2023-05-09T21:53:49.483Z,100731.28
2023-05-09T21:56:51.833Z,100736.31
2023-05-09T21:59:56.163Z,100730.91
2023-05-09T22:02:58.838Z,100729.94
2023-05-09T22:06:01.593Z,100727.97
2023-05-09T22:09:04.832Z,100728.53
2023-05-09T22:12:07.593Z,100729.22
2023-05-09T22:15:09.902Z,100719.69
2023-05-09T22:18:12.479Z,100723.41
2023-05-09T22:21:14.966Z,100722.59
2023-05-09T22:24:17.609Z,100722.59
2023-05-09T22:27:19.905Z,100724.97
2023-05-09T22:30:22.694Z,100716.19
2023-05-09T22:33:25.933Z,100711.59
2023-05-09T22:36:28.593Z,100721.06
2023-05-09T22:39:31.026Z,100714.03
2023-05-09T22:42:34.819Z,100719.09
2023-05-09T22:45:37.254Z,100715.13
2023-05-09T22:48:39.954Z,100715.44
2023-05-09T22:51:42.307Z,100717.88
2023-05-09T22:54:45.135Z,100709.13
2023-05-09T22:57:47.493Z,100713.53
2023-05-09T23:00:50.163Z,100713.09
2023-05-09T23:03:52.480Z,100706.84
2023-05-09T23:10:52.323Z,100711.00
2023-05-09T23:13:55.286Z,100703.06
2023-05-09T23:16:57.629Z,100702.16
2023-05-09T23:20:00.944Z,100700.84
2023-05-09T23:23:03.694Z,100703.62
2023-05-09T23:26:06.286Z,100704.66
2023-05-09T23:29:08.822Z,100698.03
2023-05-09T23:32:11.490Z,100700.69
2023-05-09T23:35:13.812Z,100699.81
2023-05-09T23:38:17.122Z,100688.66
2023-05-09T23:41:19.819Z,100689.44
2023-05-09T23:44:22.488Z,100688.03
2023-05-09T23:47:24.975Z,100690.50
2023-05-09T23:50:27.766Z,100689.78
2023-05-09T23:53:31.301Z,100683.88
2023-05-09T23:56:33.902Z,100675.16
2023-05-09T23:59:36.203Z,100677.78
